CheckWX is a tool to help pilots better visualize weather data.  It is not intended as a substitute for an official pre-flight weather briefing.

19:14:55 UTC

CYYD METAR
Smithers Airport
Smithers, Canada
Current

1 hour ago

CYYD 261800Z VRB03KT 20SM FEW065 17/08 A3005 RMK CU1 FU SLP180 DENSITY ALT 2300FT
Observed
May-26 @ 18:00 UTC
Wind
  • Variable at 3 KTS
Visibility
20 SM
Flight Rules
VFR
Cloud Levels
  • Few at 6,500' AGL
Temperature
17°C / 63°F
Dewpoint
C / 46°F
Humidity
56%
Altimeter
30.05" Hg
Pressure
1017.62 hPa
Previous

2 hours ago

CYYD 261700Z 13003KT 070V210 20SM SKC 15/09 A3007 RMK FU SLP188 DENSITY ALT 2000FT
Observed
May-26 @ 17:00 UTC
Wind
  • 130° at 3 KTS
Visibility
20 SM
Flight Rules
VFR
Cloud Levels
  • Clear skies
Temperature
15°C / 59°F
Dewpoint
C / 48°F
Humidity
68%
Altimeter
30.07" Hg
Pressure
1018.32 hPa
Previous

3 hours ago

CYYD 261600Z 14004KT 110V190 20SM SKC 12/08 A3009 RMK FU SLP193
Observed
May-26 @ 16:00 UTC
Wind
  • 140° at 4 KTS
Visibility
20 SM
Flight Rules
VFR
Cloud Levels
  • Clear skies
Temperature
12°C / 54°F
Dewpoint
C / 46°F
Humidity
77%
Altimeter
30.09" Hg
Pressure
1018.92 hPa